sensor_id;sensor_type;location;lat;lon;timestamp;temperature;humidity
28548;DHT22;68292;49.600;8.746;2023-10-19T00:01:16;20.20;56.50
28548;DHT22;68292;49.600;8.746;2023-10-19T00:03:45;20.20;56.40
28548;DHT22;68292;49.600;8.746;2023-10-19T00:06:13;20.10;56.40
28548;DHT22;68292;49.600;8.746;2023-10-19T00:08:42;20.20;56.60
28548;DHT22;68292;49.600;8.746;2023-10-19T00:11:11;20.20;56.60
28548;DHT22;68292;49.600;8.746;2023-10-19T00:13:50;20.20;56.70
28548;DHT22;68292;49.600;8.746;2023-10-19T00:16:18;20.20;56.90
28548;DHT22;68292;49.600;8.746;2023-10-19T00:18:50;20.10;56.70
28548;DHT22;68292;49.600;8.746;2023-10-19T00:21:19;20.20;56.80
28548;DHT22;68292;49.600;8.746;2023-10-19T00:23:53;20.20;56.90
28548;DHT22;68292;49.600;8.746;2023-10-19T00:26:24;20.20;57.10
28548;DHT22;68292;49.600;8.746;2023-10-19T00:28:57;20.20;57.00
28548;DHT22;68292;49.600;8.746;2023-10-19T00:31:26;20.20;57.20
28548;DHT22;68292;49.600;8.746;2023-10-19T00:33:57;20.20;57.10
28548;DHT22;68292;49.600;8.746;2023-10-19T00:36:25;20.20;57.00
28548;DHT22;68292;49.600;8.746;2023-10-19T00:38:54;20.20;57.10
28548;DHT22;68292;49.600;8.746;2023-10-19T00:41:29;20.20;57.10
28548;DHT22;68292;49.600;8.746;2023-10-19T00:44:00;20.20;57.10
28548;DHT22;68292;49.600;8.746;2023-10-19T00:46:34;20.20;57.40
28548;DHT22;68292;49.600;8.746;2023-10-19T00:49:11;20.20;57.10
28548;DHT22;68292;49.600;8.746;2023-10-19T00:51:45;20.20;57.20
28548;DHT22;68292;49.600;8.746;2023-10-19T00:54:25;20.20;57.40
28548;DHT22;68292;49.600;8.746;2023-10-19T00:57:00;20.20;57.40
28548;DHT22;68292;49.600;8.746;2023-10-19T00:59:35;20.20;57.30
28548;DHT22;68292;49.600;8.746;2023-10-19T01:02:10;20.20;57.60
28548;DHT22;68292;49.600;8.746;2023-10-19T01:04:49;20.20;57.40
28548;DHT22;68292;49.600;8.746;2023-10-19T01:07:23;20.20;57.60
28548;DHT22;68292;49.600;8.746;2023-10-19T01:09:57;20.20;57.40
28548;DHT22;68292;49.600;8.746;2023-10-19T01:12:27;20.20;57.50
28548;DHT22;68292;49.600;8.746;2023-10-19T01:15:09;20.20;57.60
28548;DHT22;68292;49.600;8.746;2023-10-19T01:17:43;20.20;57.90
28548;DHT22;68292;49.600;8.746;2023-10-19T01:20:14;20.20;57.70
28548;DHT22;68292;49.600;8.746;2023-10-19T01:22:54;20.20;57.90
28548;DHT22;68292;49.600;8.746;2023-10-19T01:25:49;20.20;58.10
28548;DHT22;68292;49.600;8.746;2023-10-19T01:28:28;20.20;57.70
28548;DHT22;68292;49.600;8.746;2023-10-19T01:31:11;20.20;57.80
28548;DHT22;68292;49.600;8.746;2023-10-19T01:33:50;20.20;57.90
28548;DHT22;68292;49.600;8.746;2023-10-19T01:36:22;20.20;57.80
28548;DHT22;68292;49.600;8.746;2023-10-19T01:38:57;20.20;57.90
28548;DHT22;68292;49.600;8.746;2023-10-19T01:41:28;20.20;58.10
28548;DHT22;68292;49.600;8.746;2023-10-19T01:43:59;20.20;58.00
28548;DHT22;68292;49.600;8.746;2023-10-19T01:46:34;20.20;58.10
28548;DHT22;68292;49.600;8.746;2023-10-19T01:49:04;20.20;58.30
28548;DHT22;68292;49.600;8.746;2023-10-19T01:51:35;20.20;58.20
28548;DHT22;68292;49.600;8.746;2023-10-19T01:54:07;20.20;58.30
28548;DHT22;68292;49.600;8.746;2023-10-19T01:56:36;20.20;58.60
28548;DHT22;68292;49.600;8.746;2023-10-19T01:59:06;20.20;58.50
28548;DHT22;68292;49.600;8.746;2023-10-19T02:01:36;20.30;58.60
28548;DHT22;68292;49.600;8.746;2023-10-19T02:04:05;20.30;58.80
28548;DHT22;68292;49.600;8.746;2023-10-19T02:06:36;20.30;59.00
28548;DHT22;68292;49.600;8.746;2023-10-19T02:09:08;20.30;59.00
28548;DHT22;68292;49.600;8.746;2023-10-19T02:11:45;20.30;59.50
28548;DHT22;68292;49.600;8.746;2023-10-19T02:14:15;20.30;59.00
28548;DHT22;68292;49.600;8.746;2023-10-19T02:16:47;20.30;59.20
28548;DHT22;68292;49.600;8.746;2023-10-19T02:19:20;20.30;59.30
28548;DHT22;68292;49.600;8.746;2023-10-19T02:21:52;20.30;59.40
28548;DHT22;68292;49.600;8.746;2023-10-19T02:24:22;20.30;59.60
28548;DHT22;68292;49.600;8.746;2023-10-19T02:26:53;20.40;59.70
28548;DHT22;68292;49.600;8.746;2023-10-19T02:29:23;20.40;59.60
28548;DHT22;68292;49.600;8.746;2023-10-19T02:31:54;20.40;59.60
28548;DHT22;68292;49.600;8.746;2023-10-19T02:34:24;20.40;59.50
28548;DHT22;68292;49.600;8.746;2023-10-19T02:36:52;20.40;59.60
28548;DHT22;68292;49.600;8.746;2023-10-19T02:39:22;20.40;59.70
28548;DHT22;68292;49.600;8.746;2023-10-19T02:41:55;20.40;60.00
28548;DHT22;68292;49.600;8.746;2023-10-19T02:44:23;20.40;59.90
28548;DHT22;68292;49.600;8.746;2023-10-19T02:46:54;20.40;60.00
28548;DHT22;68292;49.600;8.746;2023-10-19T02:49:27;20.50;60.10
28548;DHT22;68292;49.600;8.746;2023-10-19T02:51:57;20.40;60.10
28548;DHT22;68292;49.600;8.746;2023-10-19T02:54:33;20.50;60.10
28548;DHT22;68292;49.600;8.746;2023-10-19T02:57:03;20.50;60.50
28548;DHT22;68292;49.600;8.746;2023-10-19T02:59:35;20.50;60.30
28548;DHT22;68292;49.600;8.746;2023-10-19T03:02:04;20.50;60.30
28548;DHT22;68292;49.600;8.746;2023-10-19T03:04:44;20.50;60.40
28548;DHT22;68292;49.600;8.746;2023-10-19T03:07:14;20.50;60.30
28548;DHT22;68292;49.600;8.746;2023-10-19T03:09:44;20.50;60.40
28548;DHT22;68292;49.600;8.746;2023-10-19T03:12:16;20.50;60.80
28548;DHT22;68292;49.600;8.746;2023-10-19T03:14:46;20.60;60.50
28548;DHT22;68292;49.600;8.746;2023-10-19T03:17:16;20.60;61.60
28548;DHT22;68292;49.600;8.746;2023-10-19T03:19:45;20.60;60.70
28548;DHT22;68292;49.600;8.746;2023-10-19T03:22:13;20.60;60.80
28548;DHT22;68292;49.600;8.746;2023-10-19T03:24:45;20.60;60.80
28548;DHT22;68292;49.600;8.746;2023-10-19T03:27:15;20.60;61.10
28548;DHT22;68292;49.600;8.746;2023-10-19T03:29:46;20.60;61.00
28548;DHT22;68292;49.600;8.746;2023-10-19T03:32:21;20.60;61.10
28548;DHT22;68292;49.600;8.746;2023-10-19T03:34:54;20.60;61.10
28548;DHT22;68292;49.600;8.746;2023-10-19T03:37:25;20.60;61.90
28548;DHT22;68292;49.600;8.746;2023-10-19T03:39:57;20.60;61.10
28548;DHT22;68292;49.600;8.746;2023-10-19T03:42:26;20.60;61.40
28548;DHT22;68292;49.600;8.746;2023-10-19T03:45:00;20.60;61.10
28548;DHT22;68292;49.600;8.746;2023-10-19T03:47:35;20.60;61.10
28548;DHT22;68292;49.600;8.746;2023-10-19T03:50:06;20.60;61.10
28548;DHT22;68292;49.600;8.746;2023-10-19T03:52:41;20.60;61.20
28548;DHT22;68292;49.600;8.746;2023-10-19T03:55:14;20.60;62.00
28548;DHT22;68292;49.600;8.746;2023-10-19T03:57:46;20.60;61.40
28548;DHT22;68292;49.600;8.746;2023-10-19T04:00:18;20.60;61.20
28548;DHT22;68292;49.600;8.746;2023-10-19T04:02:51;20.60;61.30
28548;DHT22;68292;49.600;8.746;2023-10-19T04:05:23;20.60;61.30
28548;DHT22;68292;49.600;8.746;2023-10-19T04:07:53;20.60;62.30
28548;DHT22;68292;49.600;8.746;2023-10-19T04:10:24;20.60;61.50
28548;DHT22;68292;49.600;8.746;2023-10-19T04:13:06;20.70;62.00
28548;DHT22;68292;49.600;8.746;2023-10-19T04:15:40;20.70;61.60
28548;DHT22;68292;49.600;8.746;2023-10-19T04:18:09;20.70;62.50
28548;DHT22;68292;49.600;8.746;2023-10-19T04:20:38;20.70;61.70
28548;DHT22;68292;49.600;8.746;2023-10-19T04:23:23;20.60;61.70
28548;DHT22;68292;49.600;8.746;2023-10-19T04:25:57;20.70;61.90
28548;DHT22;68292;49.600;8.746;2023-10-19T04:28:26;20.70;62.20
28548;DHT22;68292;49.600;8.746;2023-10-19T04:31:01;20.70;61.90
28548;DHT22;68292;49.600;8.746;2023-10-19T04:33:33;20.70;62.00
28548;DHT22;68292;49.600;8.746;2023-10-19T04:36:02;20.70;62.00
28548;DHT22;68292;49.600;8.746;2023-10-19T04:38:35;20.70;62.10
28548;DHT22;68292;49.600;8.746;2023-10-19T04:41:07;20.70;62.00
28548;DHT22;68292;49.600;8.746;2023-10-19T04:43:37;20.70;62.50
28548;DHT22;68292;49.600;8.746;2023-10-19T04:46:07;20.70;62.20
28548;DHT22;68292;49.600;8.746;2023-10-19T04:48:39;20.70;62.30
28548;DHT22;68292;49.600;8.746;2023-10-19T04:51:09;20.70;62.10
28548;DHT22;68292;49.600;8.746;2023-10-19T04:53:39;20.70;62.10
28548;DHT22;68292;49.600;8.746;2023-10-19T04:56:09;20.70;62.20
28548;DHT22;68292;49.600;8.746;2023-10-19T04:58:39;20.70;62.40
28548;DHT22;68292;49.600;8.746;2023-10-19T05:01:08;20.70;62.20
28548;DHT22;68292;49.600;8.746;2023-10-19T05:03:39;20.70;62.10
28548;DHT22;68292;49.600;8.746;2023-10-19T05:06:08;20.70;62.10
28548;DHT22;68292;49.600;8.746;2023-10-19T05:08:37;20.70;62.10
28548;DHT22;68292;49.600;8.746;2023-10-19T05:11:06;20.70;62.10
28548;DHT22;68292;49.600;8.746;2023-10-19T05:13:36;20.70;62.10
28548;DHT22;68292;49.600;8.746;2023-10-19T05:16:06;20.70;62.40
28548;DHT22;68292;49.600;8.746;2023-10-19T05:18:35;20.70;62.20
28548;DHT22;68292;49.600;8.746;2023-10-19T05:21:04;20.70;62.20
28548;DHT22;68292;49.600;8.746;2023-10-19T05:23:33;20.70;62.20
28548;DHT22;68292;49.600;8.746;2023-10-19T05:26:03;20.70;62.20
28548;DHT22;68292;49.600;8.746;2023-10-19T05:28:33;20.60;62.40
28548;DHT22;68292;49.600;8.746;2023-10-19T05:31:04;20.60;62.30
28548;DHT22;68292;49.600;8.746;2023-10-19T05:33:33;20.70;62.40
28548;DHT22;68292;49.600;8.746;2023-10-19T05:36:01;20.60;62.40
28548;DHT22;68292;49.600;8.746;2023-10-19T05:38:30;20.60;62.40
28548;DHT22;68292;49.600;8.746;2023-10-19T05:41:00;20.60;62.50
28548;DHT22;68292;49.600;8.746;2023-10-19T05:43:29;20.60;62.50
28548;DHT22;68292;49.600;8.746;2023-10-19T05:45:59;20.60;62.50
28548;DHT22;68292;49.600;8.746;2023-10-19T05:48:28;20.60;62.70
28548;DHT22;68292;49.600;8.746;2023-10-19T05:50:57;20.60;62.50
28548;DHT22;68292;49.600;8.746;2023-10-19T05:53:26;20.60;62.50
28548;DHT22;68292;49.600;8.746;2023-10-19T05:55:56;20.60;62.40
28548;DHT22;68292;49.600;8.746;2023-10-19T05:58:25;20.60;63.20
28548;DHT22;68292;49.600;8.746;2023-10-19T06:00:59;20.60;62.40
28548;DHT22;68292;49.600;8.746;2023-10-19T06:03:28;20.60;63.00
28548;DHT22;68292;49.600;8.746;2023-10-19T06:05:57;20.60;62.40
28548;DHT22;68292;49.600;8.746;2023-10-19T06:08:26;20.60;62.40
28548;DHT22;68292;49.600;8.746;2023-10-19T06:10:56;20.60;62.40
28548;DHT22;68292;49.600;8.746;2023-10-19T06:13:24;20.60;62.40
28548;DHT22;68292;49.600;8.746;2023-10-19T06:15:54;20.60;62.40
28548;DHT22;68292;49.600;8.746;2023-10-19T06:18:24;20.60;62.50
28548;DHT22;68292;49.600;8.746;2023-10-19T06:20:53;20.60;62.80
28548;DHT22;68292;49.600;8.746;2023-10-19T06:23:22;20.60;62.70
28548;DHT22;68292;49.600;8.746;2023-10-19T06:25:50;20.60;62.70
28548;DHT22;68292;49.600;8.746;2023-10-19T06:28:19;20.60;62.80
28548;DHT22;68292;49.600;8.746;2023-10-19T06:30:48;20.60;62.80
28548;DHT22;68292;49.600;8.746;2023-10-19T06:33:18;20.60;62.80
28548;DHT22;68292;49.600;8.746;2023-10-19T06:35:48;20.60;62.90
28548;DHT22;68292;49.600;8.746;2023-10-19T06:38:17;20.60;63.20
28548;DHT22;68292;49.600;8.746;2023-10-19T06:40:46;20.60;63.00
28548;DHT22;68292;49.600;8.746;2023-10-19T06:43:15;20.60;63.00
28548;DHT22;68292;49.600;8.746;2023-10-19T06:45:44;20.60;63.10
28548;DHT22;68292;49.600;8.746;2023-10-19T06:48:13;20.60;63.20
28548;DHT22;68292;49.600;8.746;2023-10-19T06:50:42;20.60;63.20
28548;DHT22;68292;49.600;8.746;2023-10-19T06:53:18;20.60;63.40
28548;DHT22;68292;49.600;8.746;2023-10-19T06:55:49;20.60;63.60
28548;DHT22;68292;49.600;8.746;2023-10-19T06:58:18;20.60;63.50
28548;DHT22;68292;49.600;8.746;2023-10-19T07:00:47;20.60;63.60
28548;DHT22;68292;49.600;8.746;2023-10-19T07:03:24;20.60;63.60
28548;DHT22;68292;49.600;8.746;2023-10-19T07:05:54;20.60;63.60
28548;DHT22;68292;49.600;8.746;2023-10-19T07:08:25;20.70;63.70
28548;DHT22;68292;49.600;8.746;2023-10-19T07:10:54;20.70;64.00
28548;DHT22;68292;49.600;8.746;2023-10-19T07:13:24;20.70;63.80
28548;DHT22;68292;49.600;8.746;2023-10-19T07:15:54;20.70;63.80
28548;DHT22;68292;49.600;8.746;2023-10-19T07:18:23;20.70;63.90
28548;DHT22;68292;49.600;8.746;2023-10-19T07:20:52;20.70;64.00
28548;DHT22;68292;49.600;8.746;2023-10-19T07:23:29;20.70;64.00
28548;DHT22;68292;49.600;8.746;2023-10-19T07:25:58;20.80;64.30
28548;DHT22;68292;49.600;8.746;2023-10-19T07:28:28;20.70;64.10
28548;DHT22;68292;49.600;8.746;2023-10-19T07:30:57;20.80;64.20
28548;DHT22;68292;49.600;8.746;2023-10-19T07:33:27;20.80;64.30
28548;DHT22;68292;49.600;8.746;2023-10-19T07:35:56;20.80;64.40
28548;DHT22;68292;49.600;8.746;2023-10-19T07:38:29;20.80;64.40
28548;DHT22;68292;49.600;8.746;2023-10-19T07:41:00;20.80;64.70
28548;DHT22;68292;49.600;8.746;2023-10-19T07:43:31;20.80;64.50
28548;DHT22;68292;49.600;8.746;2023-10-19T07:46:04;20.80;64.60
28548;DHT22;68292;49.600;8.746;2023-10-19T07:48:36;20.90;65.00
28548;DHT22;68292;49.600;8.746;2023-10-19T07:51:05;20.90;64.60
28548;DHT22;68292;49.600;8.746;2023-10-19T07:53:36;20.90;64.70
28548;DHT22;68292;49.600;8.746;2023-10-19T07:56:05;20.90;64.90
28548;DHT22;68292;49.600;8.746;2023-10-19T07:58:34;20.90;64.80
28548;DHT22;68292;49.600;8.746;2023-10-19T08:01:02;20.90;64.80
28548;DHT22;68292;49.600;8.746;2023-10-19T08:03:33;20.90;64.80
28548;DHT22;68292;49.600;8.746;2023-10-19T08:06:02;21.00;64.90
28548;DHT22;68292;49.600;8.746;2023-10-19T08:08:33;20.90;65.70
28548;DHT22;68292;49.600;8.746;2023-10-19T08:11:03;21.00;64.90
28548;DHT22;68292;49.600;8.746;2023-10-19T08:13:32;21.00;65.10
28548;DHT22;68292;49.600;8.746;2023-10-19T08:16:01;21.00;65.00
28548;DHT22;68292;49.600;8.746;2023-10-19T08:18:30;21.00;65.10
28548;DHT22;68292;49.600;8.746;2023-10-19T08:20:59;21.00;65.10
28548;DHT22;68292;49.600;8.746;2023-10-19T08:23:28;21.00;65.10
28548;DHT22;68292;49.600;8.746;2023-10-19T08:25:58;21.00;65.20
28548;DHT22;68292;49.600;8.746;2023-10-19T08:28:29;21.10;65.30
28548;DHT22;68292;49.600;8.746;2023-10-19T08:30:59;21.10;65.50
28548;DHT22;68292;49.600;8.746;2023-10-19T08:33:32;21.10;65.30
28548;DHT22;68292;49.600;8.746;2023-10-19T08:36:06;21.10;65.20
28548;DHT22;68292;49.600;8.746;2023-10-19T08:38:43;21.10;65.10
28548;DHT22;68292;49.600;8.746;2023-10-19T08:41:13;21.10;65.00
28548;DHT22;68292;49.600;8.746;2023-10-19T08:43:44;21.20;65.30
28548;DHT22;68292;49.600;8.746;2023-10-19T08:46:12;21.20;65.30
28548;DHT22;68292;49.600;8.746;2023-10-19T08:48:41;21.20;65.20
28548;DHT22;68292;49.600;8.746;2023-10-19T08:51:10;21.20;65.40
28548;DHT22;68292;49.600;8.746;2023-10-19T08:53:39;21.30;65.60
28548;DHT22;68292;49.600;8.746;2023-10-19T08:56:09;21.30;65.80
28548;DHT22;68292;49.600;8.746;2023-10-19T08:58:39;21.30;65.80
28548;DHT22;68292;49.600;8.746;2023-10-19T09:01:10;21.40;65.90
28548;DHT22;68292;49.600;8.746;2023-10-19T09:03:39;21.40;66.20
28548;DHT22;68292;49.600;8.746;2023-10-19T09:06:11;21.50;66.10
28548;DHT22;68292;49.600;8.746;2023-10-19T09:08:42;21.50;66.30
28548;DHT22;68292;49.600;8.746;2023-10-19T09:11:17;21.60;65.80
28548;DHT22;68292;49.600;8.746;2023-10-19T09:13:49;21.60;65.80
28548;DHT22;68292;49.600;8.746;2023-10-19T09:16:21;21.70;65.80
28548;DHT22;68292;49.600;8.746;2023-10-19T09:18:51;21.70;66.60
28548;DHT22;68292;49.600;8.746;2023-10-19T09:21:20;21.80;65.70
28548;DHT22;68292;49.600;8.746;2023-10-19T09:23:52;21.80;65.70
28548;DHT22;68292;49.600;8.746;2023-10-19T09:26:23;21.80;65.90
28548;DHT22;68292;49.600;8.746;2023-10-19T09:28:53;21.90;66.00
28548;DHT22;68292;49.600;8.746;2023-10-19T09:31:23;21.90;66.80
28548;DHT22;68292;49.600;8.746;2023-10-19T09:33:52;22.00;66.10
28548;DHT22;68292;49.600;8.746;2023-10-19T09:36:24;22.00;66.00
28548;DHT22;68292;49.600;8.746;2023-10-19T09:38:57;22.10;66.30
28548;DHT22;68292;49.600;8.746;2023-10-19T09:41:26;22.10;66.00
28548;DHT22;68292;49.600;8.746;2023-10-19T09:43:59;22.20;66.20
28548;DHT22;68292;49.600;8.746;2023-10-19T09:46:34;22.20;66.10
28548;DHT22;68292;49.600;8.746;2023-10-19T09:49:08;22.30;66.20
28548;DHT22;68292;49.600;8.746;2023-10-19T09:51:39;22.30;66.00
28548;DHT22;68292;49.600;8.746;2023-10-19T09:54:27;22.40;66.00
28548;DHT22;68292;49.600;8.746;2023-10-19T09:57:03;22.50;66.20
28548;DHT22;68292;49.600;8.746;2023-10-19T09:59:41;22.50;66.00
28548;DHT22;68292;49.600;8.746;2023-10-19T10:02:12;22.60;65.70
28548;DHT22;68292;49.600;8.746;2023-10-19T10:04:45;22.70;65.70
28548;DHT22;68292;49.600;8.746;2023-10-19T10:07:15;22.70;65.60
28548;DHT22;68292;49.600;8.746;2023-10-19T10:10:05;22.80;65.50
28548;DHT22;68292;49.600;8.746;2023-10-19T10:12:35;22.80;65.30
28548;DHT22;68292;49.600;8.746;2023-10-19T10:15:05;22.80;65.10
28548;DHT22;68292;49.600;8.746;2023-10-19T10:17:38;22.90;65.20
28548;DHT22;68292;49.600;8.746;2023-10-19T10:20:29;22.90;65.20
28548;DHT22;68292;49.600;8.746;2023-10-19T10:23:16;22.90;64.90
28548;DHT22;68292;49.600;8.746;2023-10-19T10:25:49;22.90;64.90
28548;DHT22;68292;49.600;8.746;2023-10-19T10:28:21;23.00;64.70
28548;DHT22;68292;49.600;8.746;2023-10-19T10:31:11;23.00;64.60
28548;DHT22;68292;49.600;8.746;2023-10-19T10:33:47;23.00;64.80
28548;DHT22;68292;49.600;8.746;2023-10-19T10:36:17;23.00;64.30
28548;DHT22;68292;49.600;8.746;2023-10-19T10:38:48;23.00;64.20
28548;DHT22;68292;49.600;8.746;2023-10-19T10:41:21;23.00;64.10
28548;DHT22;68292;49.600;8.746;2023-10-19T10:43:51;23.00;64.00
28548;DHT22;68292;49.600;8.746;2023-10-19T10:46:23;23.00;63.80
28548;DHT22;68292;49.600;8.746;2023-10-19T10:48:54;23.00;63.80
28548;DHT22;68292;49.600;8.746;2023-10-19T10:51:24;23.00;63.50
28548;DHT22;68292;49.600;8.746;2023-10-19T10:53:55;22.90;63.40
28548;DHT22;68292;49.600;8.746;2023-10-19T10:56:24;22.90;63.30
28548;DHT22;68292;49.600;8.746;2023-10-19T10:58:53;22.90;63.30
28548;DHT22;68292;49.600;8.746;2023-10-19T11:01:29;22.90;63.20
28548;DHT22;68292;49.600;8.746;2023-10-19T11:04:09;22.80;63.30
28548;DHT22;68292;49.600;8.746;2023-10-19T11:06:52;22.80;63.40
28548;DHT22;68292;49.600;8.746;2023-10-19T11:09:22;22.80;63.30
28548;DHT22;68292;49.600;8.746;2023-10-19T11:11:52;22.80;63.10
28548;DHT22;68292;49.600;8.746;2023-10-19T11:14:21;22.70;63.00
28548;DHT22;68292;49.600;8.746;2023-10-19T11:16:53;22.70;63.00
28548;DHT22;68292;49.600;8.746;2023-10-19T11:19:37;22.70;63.00
28548;DHT22;68292;49.600;8.746;2023-10-19T11:22:09;22.60;63.10
28548;DHT22;68292;49.600;8.746;2023-10-19T11:24:38;22.60;63.10
28548;DHT22;68292;49.600;8.746;2023-10-19T11:27:08;22.60;62.90
28548;DHT22;68292;49.600;8.746;2023-10-19T11:29:39;22.60;62.90
28548;DHT22;68292;49.600;8.746;2023-10-19T11:32:22;22.50;62.80
28548;DHT22;68292;49.600;8.746;2023-10-19T11:34:55;22.50;63.00
28548;DHT22;68292;49.600;8.746;2023-10-19T11:37:23;22.50;63.00
28548;DHT22;68292;49.600;8.746;2023-10-19T11:39:53;22.40;62.80
28548;DHT22;68292;49.600;8.746;2023-10-19T11:42:22;22.40;62.80
28548;DHT22;68292;49.600;8.746;2023-10-19T11:44:50;22.40;62.80
28548;DHT22;68292;49.600;8.746;2023-10-19T11:47:19;22.40;62.80
28548;DHT22;68292;49.600;8.746;2023-10-19T11:49:48;22.40;63.00
28548;DHT22;68292;49.600;8.746;2023-10-19T11:52:19;22.40;63.00
28548;DHT22;68292;49.600;8.746;2023-10-19T11:54:48;22.30;63.20
28548;DHT22;68292;49.600;8.746;2023-10-19T11:57:17;22.30;63.00
28548;DHT22;68292;49.600;8.746;2023-10-19T11:59:47;22.30;63.00
28548;DHT22;68292;49.600;8.746;2023-10-19T12:02:23;22.30;63.00
28548;DHT22;68292;49.600;8.746;2023-10-19T12:04:52;22.30;63.10
28548;DHT22;68292;49.600;8.746;2023-10-19T12:07:22;22.30;63.30
28548;DHT22;68292;49.600;8.746;2023-10-19T12:09:51;22.20;63.30
28548;DHT22;68292;49.600;8.746;2023-10-19T12:12:20;22.20;63.30
28548;DHT22;68292;49.600;8.746;2023-10-19T12:14:50;22.20;63.30
28548;DHT22;68292;49.600;8.746;2023-10-19T12:17:21;22.20;63.30
28548;DHT22;68292;49.600;8.746;2023-10-19T12:19:56;22.20;63.30
28548;DHT22;68292;49.600;8.746;2023-10-19T12:22:27;22.20;63.30
28548;DHT22;68292;49.600;8.746;2023-10-19T12:24:59;22.20;63.40
28548;DHT22;68292;49.600;8.746;2023-10-19T12:27:28;22.20;63.50
28548;DHT22;68292;49.600;8.746;2023-10-19T12:29:57;22.10;63.40
28548;DHT22;68292;49.600;8.746;2023-10-19T12:32:26;22.10;63.50
28548;DHT22;68292;49.600;8.746;2023-10-19T12:34:55;22.10;63.60
28548;DHT22;68292;49.600;8.746;2023-10-19T12:37:25;22.10;63.60
28548;DHT22;68292;49.600;8.746;2023-10-19T12:39:55;22.10;63.60
28548;DHT22;68292;49.600;8.746;2023-10-19T12:42:23;22.10;63.60
28548;DHT22;68292;49.600;8.746;2023-10-19T12:44:52;22.10;63.60
28548;DHT22;68292;49.600;8.746;2023-10-19T12:47:22;22.10;63.60
28548;DHT22;68292;49.600;8.746;2023-10-19T12:49:52;22.10;63.80
28548;DHT22;68292;49.600;8.746;2023-10-19T12:52:22;22.10;63.80
28548;DHT22;68292;49.600;8.746;2023-10-19T12:54:53;22.10;63.80
28548;DHT22;68292;49.600;8.746;2023-10-19T12:57:26;22.10;64.00
28548;DHT22;68292;49.600;8.746;2023-10-19T12:59:55;22.10;64.00
28548;DHT22;68292;49.600;8.746;2023-10-19T13:02:24;22.10;64.10
28548;DHT22;68292;49.600;8.746;2023-10-19T13:04:58;22.00;64.00
28548;DHT22;68292;49.600;8.746;2023-10-19T13:07:26;22.00;64.10
28548;DHT22;68292;49.600;8.746;2023-10-19T13:09:57;22.00;64.20
28548;DHT22;68292;49.600;8.746;2023-10-19T13:12:25;22.00;64.20
28548;DHT22;68292;49.600;8.746;2023-10-19T13:14:54;22.00;64.30
28548;DHT22;68292;49.600;8.746;2023-10-19T13:17:23;22.00;64.50
28548;DHT22;68292;49.600;8.746;2023-10-19T13:19:53;22.00;64.60
28548;DHT22;68292;49.600;8.746;2023-10-19T13:22:25;22.00;64.70
28548;DHT22;68292;49.600;8.746;2023-10-19T13:24:54;22.00;64.70
28548;DHT22;68292;49.600;8.746;2023-10-19T13:27:24;22.00;64.80
28548;DHT22;68292;49.600;8.746;2023-10-19T13:29:54;22.00;65.00
28548;DHT22;68292;49.600;8.746;2023-10-19T13:32:27;22.00;65.00
28548;DHT22;68292;49.600;8.746;2023-10-19T13:34:57;22.00;65.00
28548;DHT22;68292;49.600;8.746;2023-10-19T13:37:25;22.00;65.10
28548;DHT22;68292;49.600;8.746;2023-10-19T13:39:59;22.00;65.20
28548;DHT22;68292;49.600;8.746;2023-10-19T13:42:29;22.00;65.30
28548;DHT22;68292;49.600;8.746;2023-10-19T13:44:58;22.00;65.50
28548;DHT22;68292;49.600;8.746;2023-10-19T13:47:27;22.00;65.40
28548;DHT22;68292;49.600;8.746;2023-10-19T13:50:01;22.00;65.40
28548;DHT22;68292;49.600;8.746;2023-10-19T13:52:30;22.00;65.50
28548;DHT22;68292;49.600;8.746;2023-10-19T13:54:59;22.00;65.50
28548;DHT22;68292;49.600;8.746;2023-10-19T13:57:29;22.00;65.50
28548;DHT22;68292;49.600;8.746;2023-10-19T13:59:58;22.00;65.80
28548;DHT22;68292;49.600;8.746;2023-10-19T14:02:31;22.00;65.80
28548;DHT22;68292;49.600;8.746;2023-10-19T14:05:00;22.00;65.80
28548;DHT22;68292;49.600;8.746;2023-10-19T14:07:28;22.00;65.90
28548;DHT22;68292;49.600;8.746;2023-10-19T14:09:59;22.00;65.80
28548;DHT22;68292;49.600;8.746;2023-10-19T14:12:30;22.00;66.00
28548;DHT22;68292;49.600;8.746;2023-10-19T14:14:59;22.00;66.10
28548;DHT22;68292;49.600;8.746;2023-10-19T14:17:27;22.00;66.10
28548;DHT22;68292;49.600;8.746;2023-10-19T14:19:57;22.00;66.00
28548;DHT22;68292;49.600;8.746;2023-10-19T14:22:26;22.00;66.10
28548;DHT22;68292;49.600;8.746;2023-10-19T14:24:54;22.00;66.10
28548;DHT22;68292;49.600;8.746;2023-10-19T14:27:23;22.00;66.20
28548;DHT22;68292;49.600;8.746;2023-10-19T14:29:53;22.00;66.20
28548;DHT22;68292;49.600;8.746;2023-10-19T14:32:22;22.00;66.40
28548;DHT22;68292;49.600;8.746;2023-10-19T14:34:51;22.00;66.30
28548;DHT22;68292;49.600;8.746;2023-10-19T14:37:20;22.00;66.30
28548;DHT22;68292;49.600;8.746;2023-10-19T14:39:49;22.00;66.40
28548;DHT22;68292;49.600;8.746;2023-10-19T14:42:18;22.00;66.40
28548;DHT22;68292;49.600;8.746;2023-10-19T14:44:47;22.00;66.50
28548;DHT22;68292;49.600;8.746;2023-10-19T14:47:17;22.00;66.60
28548;DHT22;68292;49.600;8.746;2023-10-19T14:49:45;22.00;66.80
28548;DHT22;68292;49.600;8.746;2023-10-19T14:52:14;22.00;66.60
28548;DHT22;68292;49.600;8.746;2023-10-19T14:54:43;22.00;66.70
28548;DHT22;68292;49.600;8.746;2023-10-19T14:57:12;22.00;66.80
28548;DHT22;68292;49.600;8.746;2023-10-19T14:59:40;22.00;66.70
28548;DHT22;68292;49.600;8.746;2023-10-19T15:02:09;22.00;66.70
28548;DHT22;68292;49.600;8.746;2023-10-19T15:04:41;22.00;66.80
28548;DHT22;68292;49.600;8.746;2023-10-19T15:07:11;22.00;67.00
28548;DHT22;68292;49.600;8.746;2023-10-19T15:09:42;22.00;66.90
28548;DHT22;68292;49.600;8.746;2023-10-19T15:12:12;22.00;66.90
28548;DHT22;68292;49.600;8.746;2023-10-19T15:14:41;22.00;66.80
28548;DHT22;68292;49.600;8.746;2023-10-19T15:17:10;22.00;66.90
28548;DHT22;68292;49.600;8.746;2023-10-19T15:19:40;22.00;67.00
28548;DHT22;68292;49.600;8.746;2023-10-19T15:22:09;21.90;67.00
28548;DHT22;68292;49.600;8.746;2023-10-19T15:24:38;21.90;67.10
28548;DHT22;68292;49.600;8.746;2023-10-19T15:27:07;21.90;67.10
28548;DHT22;68292;49.600;8.746;2023-10-19T15:29:36;21.90;67.20
28548;DHT22;68292;49.600;8.746;2023-10-19T15:32:05;21.90;67.30
28548;DHT22;68292;49.600;8.746;2023-10-19T15:34:35;22.00;67.40
28548;DHT22;68292;49.600;8.746;2023-10-19T15:37:05;21.90;67.40
28548;DHT22;68292;49.600;8.746;2023-10-19T15:39:36;21.90;67.70
28548;DHT22;68292;49.600;8.746;2023-10-19T15:42:04;21.90;67.60
28548;DHT22;68292;49.600;8.746;2023-10-19T15:44:35;21.90;67.60
28548;DHT22;68292;49.600;8.746;2023-10-19T15:47:04;21.90;67.60
28548;DHT22;68292;49.600;8.746;2023-10-19T15:49:41;21.90;67.60
28548;DHT22;68292;49.600;8.746;2023-10-19T15:52:18;21.90;67.60
28548;DHT22;68292;49.600;8.746;2023-10-19T15:54:48;22.00;67.80